Time;durP1;ratioP1;P1;durP2;ratioP2;P2;SDS_P1;SDS_P2;PMS_P1;PMS_P2;Temp;Humidity;BMP_temperature;BMP_pressure;BME280_temperature;BME280_humidity;BME280_pressure;Samples;Min_cycle;Max_cycle;Signal;HPM_P1;HPM_P2
2022/02/12 00:01:53;;;;;;;;;22.50;20.50;;;;;21.61;38.43;102399.22;5042781;28;58244;-76
2022/02/12 00:04:19;;;;;;;;;23.25;21.75;;;;;21.60;38.45;102401.88;5042277;28;61295;-76
2022/02/12 00:06:44;;;;;;;;;19.75;17.50;;;;;21.61;38.47;102401.00;5059832;28;57527;-76
2022/02/12 00:09:09;;;;;;;;;23.50;22.00;;;;;21.59;38.21;102389.50;5060009;28;45330;-76
2022/02/12 00:11:35;;;;;;;;;22.50;19.25;;;;;21.59;38.69;102392.16;5060840;28;49821;-76
2022/02/12 00:14:00;;;;;;;;;25.75;22.25;;;;;21.59;38.25;102392.16;5093784;27;45914;-76
2022/02/12 00:16:26;;;;;;;;;23.25;22.50;;;;;21.58;38.19;102387.75;5059888;28;45354;-76
2022/02/12 00:18:51;;;;;;;;;24.00;20.00;;;;;21.59;38.46;102381.53;5026146;28;45462;-76
2022/02/12 00:21:16;;;;;;;;;19.25;18.00;;;;;21.57;38.31;102372.72;5042323;28;57901;-76
2022/02/12 00:23:42;;;;;;;;;23.50;19.25;;;;;21.57;38.06;102376.25;5025516;28;61719;-76
2022/02/12 00:26:07;;;;;;;;;19.50;19.00;;;;;21.57;38.22;102378.91;5059548;28;50462;-76
2022/02/12 00:28:33;;;;;;;;;19.75;19.50;;;;;21.57;38.21;102376.25;5026264;28;45337;-76
2022/02/12 00:30:58;;;;;;;;;20.75;19.75;;;;;21.57;38.24;102376.25;5059843;28;45272;-76
2022/02/12 00:33:23;;;;;;;;;19.75;18.00;;;;;21.56;38.07;102374.47;5058810;28;53597;-76
2022/02/12 00:35:49;;;;;;;;;19.50;19.50;;;;;21.58;38.11;102371.81;5059185;28;53733;-76
2022/02/12 00:38:15;;;;;;;;;23.25;20.50;;;;;21.57;38.36;102370.06;5042358;28;55011;-76
2022/02/12 00:40:40;;;;;;;;;25.00;20.50;;;;;21.58;38.40;102371.81;5042486;28;45178;-74
2022/02/12 00:43:05;;;;;;;;;21.50;18.75;;;;;21.57;38.20;102373.59;5041830;28;63279;-74
2022/02/12 00:45:31;;;;;;;;;29.00;20.25;;;;;21.57;37.96;102362.09;5042499;28;45241;-76
2022/02/12 00:47:56;;;;;;;;;17.75;16.25;;;;;21.57;37.95;102365.63;5025048;28;57215;-74
2022/02/12 00:50:22;;;;;;;;;22.25;18.00;;;;;21.56;37.68;102363.84;5042135;28;53489;-76
2022/02/12 00:52:47;;;;;;;;;20.50;18.75;;;;;21.57;37.87;102362.97;5042267;28;46186;-74
2022/02/12 00:55:12;;;;;;;;;17.25;16.25;;;;;21.56;37.79;102363.84;5059205;28;45449;-75
2022/02/12 00:57:38;;;;;;;;;23.00;18.75;;;;;21.57;38.09;102359.41;5058542;28;54918;-76
2022/02/12 01:00:05;;;;;;;;;22.25;19.50;;;;;21.55;37.74;102364.75;5059248;28;45435;-73
2022/02/12 01:02:30;;;;;;;;;21.50;15.75;;;;;21.56;37.58;102363.84;5041771;28;45566;-76
2022/02/12 01:04:55;;;;;;;;;18.75;18.75;;;;;21.55;38.29;102347.94;5042197;28;45327;-76
2022/02/12 01:07:21;;;;;;;;;21.50;18.25;;;;;21.56;38.08;102349.69;5042309;28;45505;-75
2022/02/12 01:09:46;;;;;;;;;22.75;17.50;;;;;21.54;38.29;102347.03;5042290;28;45438;-76
2022/02/12 01:12:12;;;;;;;;;18.00;17.50;;;;;21.55;37.83;102343.50;5058115;28;60926;-76
2022/02/12 01:14:37;;;;;;;;;19.00;18.50;;;;;21.54;37.80;102339.06;5042273;28;45308;-76
2022/02/12 01:17:03;;;;;;;;;27.00;20.00;;;;;21.54;37.78;102335.53;5025403;28;45255;-76
2022/02/12 01:19:28;;;;;;;;;20.00;16.75;;;;;21.54;37.87;102338.19;5041817;28;45446;-76
2022/02/12 01:21:54;;;;;;;;;21.25;17.75;;;;;21.54;38.38;102330.22;5058654;28;47913;-76
2022/02/12 01:24:19;;;;;;;;;16.75;16.75;;;;;21.54;38.01;102328.44;5058740;28;45344;-76
2022/02/12 01:26:45;;;;;;;;;18.50;17.75;;;;;21.54;37.98;102322.25;5042047;28;45268;-76
2022/02/12 01:29:10;;;;;;;;;15.50;15.50;;;;;21.54;37.70;102322.25;5041985;28;45271;-77
2022/02/12 01:31:35;;;;;;;;;16.25;15.00;;;;;21.54;37.80;102319.59;5057619;28;45973;-73
2022/02/12 01:34:01;;;;;;;;;18.00;16.50;;;;;21.56;37.84;102318.69;5058036;28;55893;-70
2022/02/12 01:36:27;;;;;;;;;16.50;16.25;;;;;21.56;37.90;102318.69;5041902;28;45255;-71
2022/02/12 01:38:52;;;;;;;;;22.00;17.25;;;;;21.55;37.75;102311.63;5041936;28;45369;-72
2022/02/12 01:41:17;;;;;;;;;20.00;16.50;;;;;21.54;37.87;102312.50;5059015;28;58770;-71
2022/02/12 01:43:43;;;;;;;;;19.50;17.75;;;;;21.55;37.67;102311.63;5041118;28;65900;-71
2022/02/12 01:46:08;;;;;;;;;18.00;18.00;;;;;21.55;37.72;102305.44;5059573;28;45244;-71
2022/02/12 01:48:34;;;;;;;;;16.25;16.00;;;;;21.55;37.60;102311.63;5058044;28;45343;-72
2022/02/12 01:51:02;;;;;;;;;17.50;16.25;;;;;21.55;37.57;102306.31;5041470;28;46866;-72
2022/02/12 01:53:27;;;;;;;;;21.00;17.75;;;;;21.55;37.46;102306.31;5058567;28;45391;-72
2022/02/12 01:55:55;;;;;;;;;17.00;16.00;;;;;21.55;37.69;102298.34;5041176;28;47316;-72
2022/02/12 01:58:20;;;;;;;;;14.75;14.25;;;;;21.54;37.92;102293.91;5041618;28;45405;-72
2022/02/12 02:00:45;;;;;;;;;19.25;14.75;;;;;21.52;37.71;102284.19;5057894;28;49881;-72
2022/02/12 02:03:12;;;;;;;;;19.25;17.50;;;;;21.54;37.80;102288.56;5058071;28;45374;-72
2022/02/12 02:05:38;;;;;;;;;17.00;15.00;;;;;21.55;37.36;102286.84;5041661;28;45415;-72
2022/02/12 02:08:03;;;;;;;;;19.50;16.50;;;;;21.54;37.47;102282.38;5041437;28;45404;-71
2022/02/12 02:10:29;;;;;;;;;20.00;16.25;;;;;21.54;37.70;102269.97;5057591;28;46904;-72
2022/02/12 02:12:54;;;;;;;;;16.75;15.00;;;;;21.55;37.25;102268.25;5058131;28;45374;-71
2022/02/12 02:15:20;;;;;;;;;16.25;15.75;;;;;21.54;37.46;102271.75;5058110;28;45358;-72
2022/02/12 02:17:45;;;;;;;;;18.50;17.25;;;;;21.53;36.93;102259.38;5040248;28;63658;-71
2022/02/12 02:20:11;;;;;;;;;15.00;13.75;;;;;21.52;37.71;102260.28;5057511;28;57875;-72
2022/02/12 02:22:44;;;;;;;;;15.50;14.50;;;;;21.53;37.40;102262.91;5041214;28;45339;-72
2022/02/12 02:25:10;;;;;;;;;18.75;15.75;;;;;21.52;37.59;102258.50;5041000;28;45436;-72
2022/02/12 02:27:35;;;;;;;;;14.50;13.00;;;;;21.52;37.18;102255.84;5058134;28;45283;-71
2022/02/12 02:30:00;;;;;;;;;15.00;15.00;;;;;21.52;37.18;102250.53;5057607;28;61539;-72
2022/02/12 02:32:26;;;;;;;;;16.50;15.50;;;;;21.51;37.41;102245.25;5058973;28;55049;-72
2022/02/12 02:34:53;;;;;;;;;19.50;17.25;;;;;21.51;37.13;102245.25;5057804;28;56111;-71
2022/02/12 02:37:19;;;;;;;;;19.00;17.00;;;;;21.51;36.88;102240.81;5042241;28;45632;-72
2022/02/12 02:39:45;;;;;;;;;14.00;12.00;;;;;21.52;37.27;102241.69;5041605;28;45378;-71
2022/02/12 02:42:10;;;;;;;;;21.75;16.75;;;;;21.51;37.05;102235.50;5041941;28;45312;-71
2022/02/12 02:44:36;;;;;;;;;20.25;17.25;;;;;21.51;36.88;102237.28;5044750;28;45271;-71
2022/02/12 02:47:32;;;;;;;;;17.50;16.50;;;;;21.51;36.99;102235.50;5062518;28;45238;-71
2022/02/12 02:49:46;;;;;;;;;18.25;15.75;;;;;21.52;36.78;102225.75;5060843;28;45348;-71
2022/02/12 02:57:40;;;;;;;;;16.25;14.75;;;;;21.51;37.06;102211.59;5061286;28;45257;-71
2022/02/12 03:00:06;;;;;;;;;16.50;15.75;;;;;21.49;37.06;102208.06;5061693;28;64092;-71
2022/02/12 03:02:31;;;;;;;;;17.75;14.75;;;;;21.50;36.76;102203.66;5060522;28;45288;-71
2022/02/12 03:04:56;;;;;;;;;17.25;16.25;;;;;21.51;37.04;102200.09;5060722;28;56115;-71
2022/02/12 03:07:22;;;;;;;;;16.50;15.00;;;;;21.49;37.03;102197.44;5040689;28;45526;-71
2022/02/12 03:09:47;;;;;;;;;15.50;15.00;;;;;21.49;36.93;102186.81;5050413;28;65285;-71
2022/02/12 03:12:12;;;;;;;;;20.00;13.50;;;;;21.49;37.01;102184.16;5026595;28;64219;-71
2022/02/12 03:14:38;;;;;;;;;18.00;17.50;;;;;21.49;36.72;102180.63;5044040;28;45427;-71
2022/02/12 03:17:03;;;;;;;;;14.75;14.75;;;;;21.48;36.72;102178.88;5043925;28;45544;-71
2022/02/12 03:19:29;;;;;;;;;14.75;14.75;;;;;21.49;36.44;102176.19;5049582;28;53533;-71
2022/02/12 03:21:54;;;;;;;;;16.00;16.00;;;;;21.50;36.67;102177.06;5043470;28;52911;-71
2022/02/12 03:24:19;;;;;;;;;18.75;16.50;;;;;21.50;36.85;102169.09;5043906;28;45363;-71
2022/02/12 03:26:45;;;;;;;;;19.25;17.75;;;;;21.50;36.99;102158.47;5059878;28;59030;-70
2022/02/12 03:29:10;;;;;;;;;20.50;16.50;;;;;21.50;36.70;102158.47;5043431;28;54715;-71
2022/02/12 03:31:36;;;;;;;;;15.75;13.75;;;;;21.50;36.80;102158.47;5042879;28;65452;-71
2022/02/12 03:34:01;;;;;;;;;16.50;16.50;;;;;21.50;36.51;102158.47;5043723;28;45407;-71
2022/02/12 03:36:26;;;;;;;;;15.75;14.50;;;;;21.49;36.77;102156.72;5043663;28;45523;-71
2022/02/12 03:38:52;;;;;;;;;15.50;15.50;;;;;21.48;36.53;102155.84;5043474;28;47308;-71
2022/02/12 03:41:17;;;;;;;;;15.50;13.75;;;;;21.48;36.74;102149.66;5060165;28;45293;-71
2022/02/12 03:43:43;;;;;;;;;19.50;14.75;;;;;21.47;36.85;102145.25;5043224;28;52873;-71
2022/02/12 03:46:09;;;;;;;;;17.75;14.00;;;;;21.47;36.87;102150.56;5042693;28;62450;-71
2022/02/12 03:48:34;;;;;;;;;16.50;14.50;;;;;21.47;37.12;102145.25;5059947;28;46172;-71
2022/02/12 03:51:00;;;;;;;;;18.00;16.00;;;;;21.45;36.66;102148.78;5043304;28;45247;-71
2022/02/12 03:53:25;;;;;;;;;19.00;16.50;;;;;21.48;36.70;102141.69;5060305;28;45257;-71
2022/02/12 03:55:51;;;;;;;;;14.75;14.00;;;;;21.48;36.82;102139.91;5042659;28;45351;-71
2022/02/12 03:58:18;;;;;;;;;16.50;15.00;;;;;21.47;36.71;102139.94;5060165;28;45558;-72
2022/02/12 04:00:44;;;;;;;;;12.25;11.75;;;;;21.47;36.67;102130.19;5043282;28;45496;-71
2022/02/12 04:03:10;;;;;;;;;17.50;13.50;;;;;21.47;36.92;102129.31;5043515;28;45336;-71
2022/02/12 04:05:35;;;;;;;;;17.00;15.25;;;;;21.47;36.75;102116.03;5043370;28;45311;-71
2022/02/12 04:08:01;;;;;;;;;26.00;19.00;;;;;21.47;36.92;102116.03;5060034;28;45375;-72
2022/02/12 04:10:27;;;;;;;;;16.75;15.25;;;;;21.47;36.60;102110.72;5059856;28;45361;-72
2022/02/12 04:12:52;;;;;;;;;12.50;12.25;;;;;21.47;36.64;102116.03;5076821;28;45279;-72
2022/02/12 04:15:18;;;;;;;;;15.75;13.75;;;;;21.47;36.71;102113.38;5043047;28;45760;-72
2022/02/12 04:17:43;;;;;;;;;15.25;14.00;;;;;21.46;36.89;102109.84;5042709;28;47175;-72
2022/02/12 04:20:12;;;;;;;;;16.00;14.50;;;;;21.46;36.60;102107.19;5042983;28;45292;-71
2022/02/12 04:22:38;;;;;;;;;17.00;15.00;;;;;21.44;36.88;102103.66;5043070;28;45456;-72
2022/02/12 04:25:05;;;;;;;;;17.00;14.00;;;;;21.45;36.48;102108.06;5042791;28;45288;-71
2022/02/12 04:27:31;;;;;;;;;13.75;13.25;;;;;21.45;36.59;102105.41;5042903;28;47054;-72
2022/02/12 04:29:56;;;;;;;;;15.25;15.25;;;;;21.42;36.59;102095.72;5026139;28;45367;-72
2022/02/12 04:32:22;;;;;;;;;14.00;13.50;;;;;21.40;36.91;102089.53;5042744;28;45453;-72
2022/02/12 04:34:48;;;;;;;;;17.25;14.75;;;;;21.42;36.69;102093.06;5060313;28;58652;-72
2022/02/12 04:37:13;;;;;;;;;17.25;14.50;;;;;21.42;36.89;102093.06;5026076;28;47067;-71
2022/02/12 04:39:39;;;;;;;;;13.25;12.50;;;;;21.41;36.77;102077.16;5042630;28;45192;-71
2022/02/12 04:42:11;;;;;;;;;16.25;12.50;;;;;21.41;36.30;102083.34;5059012;28;55113;-71
2022/02/12 04:44:37;;;;;;;;;13.00;12.75;;;;;21.40;36.24;102078.94;5043576;28;45311;-71
2022/02/12 04:47:02;;;;;;;;;12.00;9.25;;;;;21.41;36.21;102088.66;5042452;28;46154;-71
2022/02/12 04:49:28;;;;;;;;;15.50;15.25;;;;;21.41;36.49;102075.38;5042120;28;45512;-71
2022/02/12 04:51:53;;;;;;;;;15.50;13.75;;;;;21.41;36.46;102087.78;5042136;28;52032;-71
2022/02/12 04:54:18;;;;;;;;;14.00;12.50;;;;;21.41;36.35;102096.63;5041697;28;58495;-71
2022/02/12 04:56:44;;;;;;;;;13.25;12.50;;;;;21.40;36.67;102094.88;5058544;28;63121;-71
2022/02/12 04:59:09;;;;;;;;;13.75;12.75;;;;;21.41;36.34;102093.09;5058481;28;60355;-71
2022/02/12 05:01:34;;;;;;;;;18.75;13.50;;;;;21.43;36.82;102091.28;5059353;28;45541;-71
2022/02/12 05:04:00;;;;;;;;;13.50;10.75;;;;;21.41;36.53;102087.78;5024985;28;58875;-71
2022/02/12 05:06:25;;;;;;;;;15.25;13.50;;;;;21.41;36.76;102085.13;5057807;28;45204;-71
2022/02/12 05:08:51;;;;;;;;;11.75;11.75;;;;;21.42;36.59;102093.06;5042130;28;45228;-71
2022/02/12 05:11:16;;;;;;;;;13.25;11.50;;;;;21.41;36.50;102080.69;5038728;28;45283;-71
2022/02/12 05:13:42;;;;;;;;;13.00;11.00;;;;;21.41;36.39;102074.50;5055539;28;48816;-71
2022/02/12 05:16:07;;;;;;;;;16.00;12.00;;;;;21.40;36.54;102072.75;5025325;28;45333;-71
2022/02/12 05:18:33;;;;;;;;;14.50;12.75;;;;;21.39;36.53;102069.22;5041583;28;45398;-71
2022/02/12 05:20:58;;;;;;;;;12.25;10.25;;;;;21.40;36.48;102073.63;5042222;28;45336;-71
2022/02/12 05:23:24;;;;;;;;;12.25;11.00;;;;;21.40;36.53;102070.09;5042088;28;45387;-71
2022/02/12 05:25:49;;;;;;;;;14.25;12.00;;;;;21.39;36.38;102060.34;5041730;28;47157;-71
2022/02/12 05:28:14;;;;;;;;;14.00;13.75;;;;;21.40;36.60;102070.97;5058718;28;45422;-71
2022/02/12 05:30:41;;;;;;;;;12.25;12.25;;;;;21.40;36.50;102057.69;5058300;28;58716;-71
2022/02/12 05:33:09;;;;;;;;;10.75;10.50;;;;;21.39;36.62;102061.25;5025297;28;45561;-71
2022/02/12 05:35:35;;;;;;;;;11.75;10.25;;;;;21.40;36.56;102065.66;5058413;28;46983;-71
2022/02/12 05:38:00;;;;;;;;;13.25;11.75;;;;;21.38;36.48;102048.88;5058466;28;45338;-71
2022/02/12 05:40:26;;;;;;;;;14.75;11.00;;;;;21.39;36.83;102055.06;5058260;28;47588;-71
2022/02/12 05:42:51;;;;;;;;;12.25;10.25;;;;;21.40;36.33;102043.53;5041238;28;55279;-71
2022/02/12 05:45:17;;;;;;;;;9.50;9.25;;;;;21.38;36.32;102045.34;5058247;28;47619;-71
2022/02/12 05:47:42;;;;;;;;;13.00;9.00;;;;;21.38;36.35;102043.56;5040634;28;57252;-71
2022/02/12 05:50:08;;;;;;;;;13.50;10.50;;;;;21.38;36.27;102038.25;5038449;28;45319;-71
2022/02/12 05:52:34;;;;;;;;;12.00;12.00;;;;;21.37;36.22;102028.53;5088198;27;45287;-71
2022/02/12 05:54:59;;;;;;;;;10.50;10.50;;;;;21.37;35.98;102024.97;5041674;28;46444;-71
2022/02/12 05:57:24;;;;;;;;;12.50;9.50;;;;;21.37;36.18;102017.91;5058166;28;45383;-71
2022/02/12 05:59:50;;;;;;;;;11.00;9.75;;;;;21.38;36.15;102016.13;5058009;28;56691;-71
2022/02/12 06:02:15;;;;;;;;;16.00;9.75;;;;;21.38;36.07;102013.47;5040437;28;67163;-71
2022/02/12 06:04:41;;;;;;;;;10.50;9.00;;;;;21.37;36.18;102020.56;5041504;28;45433;-71
2022/02/12 06:07:06;;;;;;;;;9.25;9.25;;;;;21.37;36.01;102009.94;5024401;28;52359;-71
2022/02/12 06:09:31;;;;;;;;;11.00;10.25;;;;;21.37;36.17;102012.59;5041342;28;45717;-71
2022/02/12 06:11:57;;;;;;;;;9.00;9.00;;;;;21.37;36.43;102012.59;5023033;28;65895;-71
2022/02/12 06:14:22;;;;;;;;;13.50;10.00;;;;;21.36;36.00;102008.16;5024549;28;49401;-71
2022/02/12 06:16:47;;;;;;;;;9.50;8.00;;;;;21.36;36.18;102008.16;5040894;28;55856;-70
2022/02/12 06:19:13;;;;;;;;;9.25;9.25;;;;;21.37;36.36;102009.94;5060265;28;55787;-71
2022/02/12 06:21:38;;;;;;;;;8.75;8.25;;;;;21.36;36.62;102013.47;5027764;28;55512;-71
2022/02/12 06:24:04;;;;;;;;;10.75;8.25;;;;;21.37;36.27;102012.59;5061382;28;57068;-71
2022/02/12 06:26:29;;;;;;;;;10.25;9.75;;;;;21.37;36.17;102006.38;5027989;28;45357;-71
2022/02/12 06:28:55;;;;;;;;;8.00;7.75;;;;;21.36;36.11;102008.16;5044666;28;51751;-71
2022/02/12 06:31:20;;;;;;;;;9.00;9.00;;;;;21.36;36.01;102005.50;5043938;28;62662;-73
2022/02/12 06:33:45;;;;;;;;;9.00;8.00;;;;;21.36;36.07;102005.50;5062487;28;55722;-71
2022/02/12 06:36:12;;;;;;;;;10.25;8.25;;;;;21.37;36.25;101998.41;5061370;28;45164;-71
2022/02/12 06:38:37;;;;;;;;;8.75;8.75;;;;;21.36;35.99;101996.66;5061802;28;45258;-71
2022/02/12 06:41:03;;;;;;;;;9.00;8.25;;;;;21.36;36.26;101994.00;5061971;28;56177;-71
2022/02/12 06:43:28;;;;;;;;;9.00;8.00;;;;;21.36;35.97;101991.34;5060625;28;62416;-71
2022/02/12 06:45:53;;;;;;;;;12.50;9.75;;;;;21.36;35.93;101994.88;5027736;28;45276;-71
2022/02/12 06:48:19;;;;;;;;;10.00;8.50;;;;;21.35;36.35;101982.50;5061045;28;45782;-71
2022/02/12 06:50:45;;;;;;;;;7.25;7.25;;;;;21.35;36.23;101990.47;5044261;28;45240;-73
2022/02/12 06:53:10;;;;;;;;;8.50;7.00;;;;;21.37;36.39;101985.13;5044050;28;47546;-71
2022/02/12 06:55:36;;;;;;;;;8.25;6.50;;;;;21.36;36.19;101991.34;5061498;28;60584;-71
2022/02/12 06:58:01;;;;;;;;;9.50;9.50;;;;;21.38;36.46;101993.09;5061079;28;47959;-78
2022/02/12 07:00:28;;;;;;;;;8.75;7.25;;;;;21.41;37.05;101989.50;5061122;28;45260;-76
2022/02/12 07:02:53;;;;;;;;;10.75;7.75;;;;;21.45;36.98;101996.50;5060843;28;45494;-74
2022/02/12 07:05:19;;;;;;;;;8.75;6.25;;;;;21.48;37.63;101991.16;5045530;28;45181;-69
2022/02/12 07:07:45;;;;;;;;;8.50;6.75;;;;;21.51;38.02;101996.41;5027691;28;45505;-73
2022/02/12 07:10:11;;;;;;;;;7.50;7.00;;;;;21.53;37.79;101996.38;5027451;28;45275;-75
2022/02/12 07:12:36;;;;;;;;;9.50;9.00;;;;;21.59;36.91;101993.63;5077767;28;47111;-75
2022/02/12 07:15:02;;;;;;;;;12.00;9.75;;;;;21.71;37.48;101991.63;5060655;28;45240;-78
2022/02/12 07:17:27;;;;;;;;;14.00;9.75;;;;;21.87;36.72;101997.56;5027208;28;45356;-73
2022/02/12 07:19:53;;;;;;;;;10.75;9.25;;;;;21.97;37.05;101988.53;5043155;28;64835;-75
2022/02/12 07:22:25;;;;;;;;;9.50;8.75;;;;;22.07;36.45;101983.06;5043566;28;56581;-75
2022/02/12 07:24:50;;;;;;;;;12.50;11.00;;;;;22.17;36.94;101992.66;5044799;28;45414;-73
2022/02/12 07:27:16;;;;;;;;;8.75;8.75;;;;;22.27;37.19;102000.41;5043878;28;47155;-72
2022/02/12 07:29:41;;;;;;;;;12.00;10.50;;;;;22.36;37.70;101991.38;5059524;28;45516;-75
2022/02/12 07:32:07;;;;;;;;;11.50;10.75;;;;;22.41;36.82;101981.50;5043609;28;47964;-73
2022/02/12 07:34:32;;;;;;;;;11.25;10.75;;;;;22.44;37.22;101988.56;5043703;28;45262;-74
2022/02/12 07:36:58;;;;;;;;;6.75;6.75;;;;;22.44;36.76;101992.09;5061024;28;45720;-74
2022/02/12 07:39:23;;;;;;;;;8.75;8.00;;;;;22.41;36.29;101984.16;5060216;28;45440;-74
2022/02/12 07:41:49;;;;;;;;;9.00;7.75;;;;;22.38;36.39;101986.91;5060303;28;46559;-74
2022/02/12 07:44:14;;;;;;;;;8.25;7.75;;;;;22.35;36.48;101986.97;5043656;28;45266;-75
2022/02/12 07:46:39;;;;;;;;;8.00;8.00;;;;;22.32;36.93;101988.78;5043973;28;45327;-73
2022/02/12 07:49:05;;;;;;;;;11.00;9.25;;;;;22.28;36.63;101995.97;5060971;28;45338;-73
2022/02/12 07:51:30;;;;;;;;;9.25;9.00;;;;;22.25;36.52;102004.91;5043290;28;46919;-73
2022/02/12 07:53:56;;;;;;;;;11.25;9.00;;;;;22.22;36.90;101991.63;5043323;28;45406;-74
2022/02/12 07:56:21;;;;;;;;;10.25;9.25;;;;;22.21;37.01;102004.97;5043450;28;45274;-73
2022/02/12 07:58:48;;;;;;;;;7.25;7.25;;;;;22.17;37.39;102001.50;5060314;28;51866;-72
2022/02/12 08:01:14;;;;;;;;;13.25;10.50;;;;;22.15;37.14;101995.34;5043365;28;47478;-72
2022/02/12 08:03:40;;;;;;;;;11.50;10.75;;;;;22.13;35.27;101998.91;5043180;28;45291;-72
2022/02/12 08:07:27;;;;;;;;;11.75;9.00;;;;;22.02;34.92;101993.78;5043510;28;45291;-72
2022/02/12 08:08:50;;;;;;;;;12.50;8.75;;;;;21.81;34.53;101992.38;5060168;28;45253;-75
2022/02/12 08:11:27;;;;;;;;;14.00;10.00;;;;;21.61;34.75;101998.00;5061139;28;45203;-71
2022/02/12 08:13:53;;;;;;;;;16.00;11.00;;;;;21.41;34.02;102002.78;5075231;28;45401;-74
2022/02/12 08:16:19;;;;;;;;;12.00;11.25;;;;;21.26;34.99;102008.28;5026559;28;45651;-73
2022/02/12 08:18:44;;;;;;;;;19.25;18.75;;;;;21.13;35.30;102007.59;5042624;28;45946;-73
2022/02/12 08:21:10;;;;;;;;;14.00;12.25;;;;;20.96;34.80;102001.66;5059562;28;46742;-73
2022/02/12 08:23:35;;;;;;;;;16.50;16.00;;;;;20.83;35.46;101999.13;5043048;28;45425;-72
2022/02/12 08:26:01;;;;;;;;;11.25;11.25;;;;;20.71;35.58;102001.97;5026325;28;45489;-72
2022/02/12 08:28:26;;;;;;;;;16.50;14.00;;;;;20.65;35.43;102002.03;5060440;28;57123;-73
2022/02/12 08:30:54;;;;;;;;;18.50;14.25;;;;;20.54;36.18;101998.63;5060437;28;45364;-73
2022/02/12 08:33:19;;;;;;;;;14.00;12.00;;;;;20.55;35.39;102003.03;5061610;28;45232;-73
2022/02/12 08:35:45;;;;;;;;;18.00;15.00;;;;;20.49;35.03;101995.16;5043732;28;53044;-73
2022/02/12 08:38:11;;;;;;;;;22.00;19.50;;;;;20.43;36.02;101989.91;5043202;28;63506;-75
2022/02/12 08:40:37;;;;;;;;;21.25;19.00;;;;;20.36;34.99;101989.09;5043255;28;45346;-74
2022/02/12 08:43:03;;;;;;;;;21.00;13.75;;;;;20.35;36.14;101997.06;5059603;28;45322;-74
2022/02/12 08:45:28;;;;;;;;;13.00;10.50;;;;;20.35;34.65;101997.94;5042785;28;45460;-75
2022/02/12 08:47:53;;;;;;;;;14.00;11.00;;;;;20.35;34.65;101997.94;5042029;28;50981;-74
2022/02/12 08:50:19;;;;;;;;;13.75;10.75;;;;;20.34;34.08;101990.88;5059118;28;54465;-75
2022/02/12 08:52:47;;;;;;;;;15.75;12.00;;;;;20.32;33.51;101993.53;5042091;28;50913;-74
2022/02/12 08:55:13;;;;;;;;;12.75;12.75;;;;;20.30;33.46;101984.72;5042733;28;45316;-74
2022/02/12 08:57:38;;;;;;;;;13.00;11.25;;;;;20.31;35.34;101994.44;5042045;28;45943;-75
2022/02/12 09:00:06;;;;;;;;;22.00;18.25;;;;;20.41;33.84;101981.06;5042114;28;48071;-74
2022/02/12 09:02:31;;;;;;;;;27.75;22.75;;;;;20.45;33.90;101982.84;5058982;28;45312;-74
2022/02/12 09:04:57;;;;;;;;;28.00;24.00;;;;;20.46;32.90;101979.28;5059315;28;45286;-73
2022/02/12 09:07:22;;;;;;;;;20.25;19.00;;;;;20.43;33.00;101969.59;5058954;28;45895;-73
2022/02/12 09:09:48;;;;;;;;;24.50;20.25;;;;;20.39;32.77;101972.25;5042181;28;48038;-74
2022/02/12 09:12:13;;;;;;;;;25.00;18.75;;;;;20.34;32.53;101967.03;5060010;28;45403;-74
2022/02/12 09:14:38;;;;;;;;;23.25;18.50;;;;;20.26;32.66;101951.19;5041838;28;61513;-74
2022/02/12 09:17:05;;;;;;;;;19.25;15.75;;;;;20.25;32.91;101965.34;5024521;28;59414;-74
2022/02/12 09:19:31;;;;;;;;;22.50;19.00;;;;;20.24;32.64;101963.59;5041976;28;45290;-74
2022/02/12 09:21:56;;;;;;;;;20.25;18.00;;;;;20.23;32.47;101968.91;5058508;28;45367;-74
2022/02/12 09:24:21;;;;;;;;;19.75;17.25;;;;;20.19;32.42;101960.09;5041646;28;47586;-74
2022/02/12 09:26:47;;;;;;;;;17.50;17.50;;;;;20.18;32.91;101955.72;5058104;28;45384;-74
2022/02/12 09:29:12;;;;;;;;;16.25;12.50;;;;;20.20;32.18;101959.22;5041743;28;48038;-74
2022/02/12 09:31:38;;;;;;;;;19.75;16.25;;;;;20.21;32.06;101955.66;5059592;28;45326;-74
2022/02/12 09:34:04;;;;;;;;;14.75;13.00;;;;;20.22;31.69;101968.03;5041722;28;45213;-74
2022/02/12 09:36:29;;;;;;;;;17.50;16.50;;;;;20.21;31.49;101950.34;5058402;28;45523;-74
2022/02/12 09:38:54;;;;;;;;;12.25;12.25;;;;;20.19;31.86;101946.84;5060045;28;45261;-73
2022/02/12 09:41:23;;;;;;;;;14.00;13.75;;;;;20.16;31.16;101940.72;5057403;28;64620;-74
2022/02/12 09:43:49;;;;;;;;;15.25;13.75;;;;;20.13;31.73;101936.31;5042208;28;45387;-74
2022/02/12 09:46:27;;;;;;;;;13.00;12.50;;;;;20.10;31.28;101954.91;5041586;28;46206;-74
2022/02/12 09:48:54;;;;;;;;;13.50;13.00;;;;;20.07;31.12;101944.34;5059286;28;45506;-74
2022/02/12 09:51:21;;;;;;;;;18.00;13.50;;;;;20.07;31.68;101944.34;5041733;28;45236;-74
2022/02/12 09:53:46;;;;;;;;;14.50;13.50;;;;;20.09;31.39;101939.03;5041417;28;45278;-74
2022/02/12 09:56:12;;;;;;;;;13.25;12.25;;;;;20.08;31.53;101927.56;5041051;28;56346;-75
2022/02/12 09:58:37;;;;;;;;;14.75;12.75;;;;;20.10;30.65;101931.06;5059153;28;64219;-74
2022/02/12 10:01:02;;;;;;;;;13.50;12.25;;;;;20.12;30.65;101939.00;5058577;28;45247;-74
2022/02/12 10:03:28;;;;;;;;;13.00;12.25;;;;;20.13;31.16;101933.66;5041445;28;45256;-74
2022/02/12 10:05:54;;;;;;;;;13.75;10.00;;;;;20.16;30.77;101931.00;5041203;28;45869;-74
2022/02/12 10:08:21;;;;;;;;;13.50;12.00;;;;;20.17;30.84;101926.56;5041145;28;45625;-74
2022/02/12 10:10:47;;;;;;;;;16.25;14.25;;;;;20.15;30.41;101918.63;5037814;28;45329;-74
2022/02/12 10:13:27;;;;;;;;;13.50;13.25;;;;;20.14;30.80;101914.22;5034401;28;45368;-74
2022/02/12 10:15:54;;;;;;;;;13.75;13.75;;;;;20.12;30.77;101909.84;5057980;28;45348;-74
2022/02/12 10:18:20;;;;;;;;;16.25;13.75;;;;;20.10;30.52;101906.31;5045608;28;47581;-74
2022/02/12 10:20:46;;;;;;;;;15.50;12.00;;;;;20.09;30.75;101902.81;5041224;28;45308;-75
2022/02/12 10:23:19;;;;;;;;;13.75;13.25;;;;;20.04;30.42;101901.97;5041192;28;45343;-74
2022/02/12 10:25:46;;;;;;;;;15.50;12.25;;;;;20.03;30.41;101900.22;5024985;28;45645;-74
2022/02/12 10:28:12;;;;;;;;;10.75;9.75;;;;;20.03;30.40;101894.91;5024780;28;48360;-74
2022/02/12 10:30:38;;;;;;;;;13.25;13.00;;;;;20.05;31.14;101895.75;5041157;28;45265;-74
2022/02/12 10:33:05;;;;;;;;;16.50;12.50;;;;;20.09;30.45;101884.25;5024221;28;45324;-74
2022/02/12 10:35:30;;;;;;;;;15.00;13.00;;;;;20.13;30.70;101885.06;5057865;28;45270;-74
2022/02/12 10:38:02;;;;;;;;;12.75;12.75;;;;;20.14;30.12;101881.53;5057585;28;45510;-77
2022/02/12 10:40:27;;;;;;;;;14.50;11.00;;;;;20.13;30.09;101874.47;5042025;28;45476;-74
2022/02/12 10:42:53;;;;;;;;;10.00;9.50;;;;;20.10;30.12;101864.78;5041221;28;45502;-74
2022/02/12 10:45:19;;;;;;;;;12.75;12.75;;;;;20.04;30.01;101860.44;5058368;28;45877;-75
2022/02/12 10:47:45;;;;;;;;;14.00;12.50;;;;;20.04;30.15;101864.84;5024072;28;47335;-74
2022/02/12 10:50:10;;;;;;;;;21.00;17.75;;;;;20.05;32.28;101861.31;5056142;28;45402;-72
2022/02/12 10:52:46;;;;;;;;;17.25;14.25;;;;;20.07;31.77;101859.53;5074519;28;45455;-73
2022/02/12 10:55:31;;;;;;;;;14.50;12.25;;;;;20.10;31.42;101858.63;5057622;28;45544;-88
2022/02/12 10:58:00;;;;;;;;;10.00;9.00;;;;;20.13;31.71;101863.88;5042374;28;46998;-77
2022/02/12 11:00:26;;;;;;;;;9.50;9.50;;;;;20.16;32.30;101864.72;5058162;28;45590;-81
2022/02/12 11:02:53;;;;;;;;;11.00;9.50;;;;;20.25;33.33;101859.31;5041754;28;45426;-76
2022/02/12 11:05:19;;;;;;;;;18.75;17.25;;;;;20.41;34.90;101859.09;5045159;28;45390;-84
2022/02/12 11:07:44;;;;;;;;;96.75;89.00;;;;;20.59;36.52;101859.75;5045833;28;46940;-81
2022/02/12 11:10:10;;;;;;;;;83.50;75.25;;;;;20.77;36.78;101839.16;5044986;28;45288;-75
2022/02/12 11:12:35;;;;;;;;;68.75;53.50;;;;;20.95;36.63;101846.84;5044451;28;49685;-77